Williamsport, Pennsylvania
Current Conditions -  °F | °C
As of 7:54 PM on Friday 19 Dec 2014 (Local Time) from KIPT Reporting Station
Overcast Overcast  
Wind Chill: -3°   Ceiling: 4200
Heat Index:   Visibility: 10mi
Dew Point: -7°   Wind: 7mph
Humidity: 59%   Direction: 300°WNW
Pressure: 30.19"   Gusts: NA
Location:  41.24°N, 77°W
Report Text: KIPT 200054Z 30006KT 10SM OVC042 01/M07 A3019 RMK AO2 SLP228 T00061067
Loading
Personal Weather Stations






























Interactive Weather Map New forecast layout! Learn more

10-Day Weather Forecast

Advertisements
Track Severe Weather on mobile